createdAt,value
2018-05-05T00:01:24.939Z,6.43
2018-05-05T00:03:27.702Z,5.53
2018-05-05T00:05:30.339Z,6.13
2018-05-05T00:07:33.072Z,9.03
2018-05-05T00:09:35.676Z,8.13
2018-05-05T00:11:38.375Z,5.23
2018-05-05T00:13:41.199Z,8.27
2018-05-05T00:15:43.832Z,6.17
2018-05-05T00:17:46.973Z,8.60
2018-05-05T00:19:49.599Z,6.57
2018-05-05T00:21:52.301Z,6.00
2018-05-05T00:23:54.883Z,6.83
2018-05-05T00:25:57.474Z,5.30
2018-05-05T00:28:00.110Z,10.63
2018-05-05T00:30:02.727Z,7.60
2018-05-05T00:32:06.089Z,9.30
2018-05-05T00:34:08.687Z,8.13
2018-05-05T00:36:11.264Z,7.97
2018-05-05T00:38:13.915Z,9.27
2018-05-05T00:40:16.506Z,8.00
2018-05-05T00:42:19.111Z,6.47
2018-05-05T00:44:22.104Z,6.43
2018-05-05T00:46:24.681Z,6.27
2018-05-05T00:48:27.654Z,9.47
2018-05-05T00:50:30.271Z,7.27
2018-05-05T00:52:32.883Z,8.87
2018-05-05T00:54:52.165Z,8.67
2018-05-05T00:56:54.783Z,7.87
2018-05-05T00:58:57.383Z,8.63
2018-05-05T01:00:59.955Z,7.97
2018-05-05T01:03:02.571Z,7.07
2018-05-05T01:05:05.410Z,9.97
2018-05-05T01:07:07.993Z,9.33
2018-05-05T01:09:10.593Z,7.00
2018-05-05T01:11:13.172Z,11.13
2018-05-05T01:13:15.965Z,8.80
2018-05-05T01:15:18.576Z,4.97
2018-05-05T01:17:21.191Z,6.03
2018-05-05T01:19:23.779Z,8.60
2018-05-05T01:21:26.391Z,12.03
2018-05-05T01:23:28.995Z,7.33
2018-05-05T01:25:37.995Z,5.60
2018-05-05T01:27:40.595Z,6.90
2018-05-05T01:29:43.960Z,5.43
2018-05-05T01:31:47.722Z,10.70
2018-05-05T01:33:50.346Z,6.50
2018-05-05T01:35:52.931Z,7.00
2018-05-05T01:37:55.527Z,5.60
2018-05-05T01:39:58.129Z,5.73
2018-05-05T01:42:00.728Z,8.67
2018-05-05T01:44:03.349Z,7.10
2018-05-05T01:46:06.794Z,5.40
2018-05-05T01:48:10.166Z,6.87
2018-05-05T01:50:12.875Z,7.13
2018-05-05T01:52:15.589Z,5.37
2018-05-05T01:54:18.199Z,7.97
2018-05-05T01:56:20.947Z,5.50
2018-05-05T01:58:23.553Z,8.23
2018-05-05T02:00:26.135Z,8.27
2018-05-05T02:02:28.711Z,8.23
2018-05-05T02:04:31.323Z,4.93
2018-05-05T02:06:34.688Z,8.70
2018-05-05T02:08:37.320Z,8.07
2018-05-05T02:10:39.907Z,8.10
2018-05-05T02:12:42.673Z,8.00
2018-05-05T02:14:45.377Z,6.57
2018-05-05T02:16:48.740Z,11.10
2018-05-05T02:18:51.343Z,7.17
2018-05-05T02:20:53.924Z,6.13
2018-05-05T02:22:56.593Z,5.63
2018-05-05T02:24:59.195Z,13.47
2018-05-05T02:27:01.871Z,7.83
2018-05-05T02:29:04.759Z,9.33
2018-05-05T02:31:08.115Z,5.53
2018-05-05T02:33:10.688Z,7.03
2018-05-05T02:35:13.571Z,6.77
2018-05-05T02:37:16.139Z,6.53
2018-05-05T02:39:18.752Z,9.03
2018-05-05T02:41:21.324Z,7.10
2018-05-05T02:43:24.683Z,8.23
2018-05-05T02:45:27.287Z,9.30
2018-05-05T02:47:29.916Z,6.87
2018-05-05T02:49:32.532Z,6.43
2018-05-05T02:51:35.125Z,7.77
2018-05-05T02:53:38.495Z,9.47
2018-05-05T02:55:41.348Z,6.50
2018-05-05T02:57:44.694Z,8.87
2018-05-05T02:59:48.097Z,5.90
2018-05-05T03:01:50.801Z,5.63
2018-05-05T03:03:53.417Z,10.30
2018-05-05T03:05:56.135Z,7.53
2018-05-05T03:07:58.774Z,7.33
2018-05-05T03:10:02.263Z,4.93
2018-05-05T03:12:04.934Z,6.87
2018-05-05T03:14:08.195Z,7.23
2018-05-05T03:16:10.792Z,7.30
2018-05-05T03:18:13.377Z,10.13
2018-05-05T03:20:16.907Z,8.00
2018-05-05T03:22:19.504Z,4.83
2018-05-05T03:24:22.081Z,7.13
2018-05-05T03:26:24.683Z,6.60
2018-05-05T03:28:27.264Z,7.00
2018-05-05T03:30:29.876Z,5.70
2018-05-05T03:32:32.455Z,6.37
2018-05-05T03:34:35.036Z,5.73
2018-05-05T03:36:37.651Z,7.93
2018-05-05T03:38:40.995Z,6.23
2018-05-05T03:40:43.610Z,8.73
2018-05-05T03:42:46.192Z,9.37
2018-05-05T03:44:48.776Z,4.00
2018-05-05T03:46:51.403Z,7.80
2018-05-05T03:48:54.070Z,7.60
2018-05-05T03:50:56.679Z,8.13
2018-05-05T03:52:59.254Z,7.60
2018-05-05T03:55:01.888Z,8.77
2018-05-05T03:57:04.492Z,10.17
2018-05-05T03:59:18.819Z,4.60
2018-05-05T04:01:34.075Z,7.10
2018-05-05T04:03:48.123Z,6.60
2018-05-05T04:05:51.358Z,4.20
2018-05-05T04:07:53.958Z,6.80
2018-05-05T04:09:56.643Z,5.60
2018-05-05T04:11:59.215Z,6.73
2018-05-05T04:14:02.564Z,6.57
2018-05-05T04:16:05.166Z,10.13
2018-05-05T04:18:07.775Z,6.43
2018-05-05T04:20:10.365Z,6.40
2018-05-05T04:22:12.975Z,8.83
2018-05-05T04:24:15.564Z,6.73
2018-05-05T04:26:18.180Z,7.00
2018-05-05T04:28:20.760Z,5.47
2018-05-05T04:30:23.356Z,10.40
2018-05-05T04:32:25.975Z,4.90
2018-05-05T04:34:29.320Z,6.00
2018-05-05T04:36:31.933Z,6.27
2018-05-05T04:38:34.527Z,6.97
2018-05-05T04:40:38.956Z,9.43
2018-05-05T04:42:41.588Z,7.77
2018-05-05T04:44:44.980Z,7.37
2018-05-05T04:46:47.590Z,5.57
2018-05-05T04:48:50.948Z,5.37
2018-05-05T04:50:53.531Z,9.03
2018-05-05T04:52:57.078Z,8.10
2018-05-05T04:54:59.665Z,6.73
2018-05-05T04:57:02.309Z,5.97
2018-05-05T04:59:04.900Z,6.80
2018-05-05T05:01:07.521Z,7.13
2018-05-05T05:03:10.349Z,6.70
2018-05-05T05:05:12.904Z,7.07
2018-05-05T05:07:15.527Z,12.77
2018-05-05T05:09:18.128Z,6.77
2018-05-05T05:11:20.767Z,7.57
2018-05-05T05:13:24.142Z,5.60
2018-05-05T05:15:26.780Z,8.23
2018-05-05T05:17:30.162Z,9.77
2018-05-05T05:19:32.752Z,7.03
2018-05-05T05:21:36.103Z,6.90
2018-05-05T05:23:38.708Z,8.87
2018-05-05T05:25:41.395Z,9.40
2018-05-05T05:27:44.771Z,6.00
2018-05-05T05:29:47.356Z,8.40
2018-05-05T05:31:50.704Z,9.00
2018-05-05T05:33:53.495Z,7.20
2018-05-05T05:35:56.060Z,9.37
2018-05-05T05:37:58.715Z,8.20
2018-05-05T05:40:01.303Z,6.13
2018-05-05T05:42:03.879Z,8.70
2018-05-05T05:44:06.476Z,7.50
2018-05-05T05:46:09.078Z,6.87
2018-05-05T05:48:12.455Z,9.77
2018-05-05T05:50:15.036Z,6.43
2018-05-05T05:52:18.474Z,6.67
2018-05-05T05:54:21.931Z,8.33
2018-05-05T05:56:25.286Z,12.10
2018-05-05T05:58:27.890Z,8.83
2018-05-05T06:00:31.312Z,10.83
2018-05-05T06:02:33.904Z,7.03
2018-05-05T06:04:36.508Z,6.57
2018-05-05T06:06:39.105Z,8.13
2018-05-05T06:08:42.471Z,8.50
2018-05-05T06:10:45.087Z,10.17
2018-05-05T06:12:48.962Z,10.23
2018-05-05T06:14:51.651Z,6.67
2018-05-05T06:16:54.996Z,13.13
2018-05-05T06:18:57.635Z,9.97
2018-05-05T06:21:00.991Z,7.10
2018-05-05T06:23:03.656Z,8.27
2018-05-05T06:25:06.236Z,7.50
2018-05-05T06:27:08.936Z,6.70
2018-05-05T06:29:12.355Z,9.20
2018-05-05T06:31:15.128Z,8.13
2018-05-05T06:33:17.735Z,8.53
2018-05-05T06:35:20.312Z,7.10
2018-05-05T06:37:23.723Z,6.47
2018-05-05T06:39:26.388Z,10.13
2018-05-05T06:41:28.982Z,6.70
2018-05-05T06:43:31.639Z,11.80
2018-05-05T06:45:34.219Z,8.07
2018-05-05T06:47:36.807Z,8.27
2018-05-05T06:49:39.412Z,11.20
2018-05-05T06:51:41.997Z,8.57
2018-05-05T06:53:44.603Z,9.90
2018-05-05T06:55:48.305Z,9.87
2018-05-05T06:57:50.900Z,10.33
2018-05-05T06:59:53.513Z,9.07
2018-05-05T07:01:56.101Z,13.30
2018-05-05T07:03:58.732Z,13.70
2018-05-05T07:06:01.317Z,15.40
2018-05-05T07:08:04.677Z,10.97
2018-05-05T07:10:07.292Z,11.07
2018-05-05T07:12:10.718Z,16.77
2018-05-05T07:14:13.357Z,10.17
2018-05-05T07:16:16.710Z,9.10
2018-05-05T07:18:19.295Z,11.63
2018-05-05T07:20:21.902Z,12.93
2018-05-05T07:22:25.263Z,10.97
2018-05-05T07:24:27.955Z,10.33
2018-05-05T07:26:30.665Z,12.13
2018-05-05T07:28:33.250Z,14.73
2018-05-05T07:30:35.851Z,11.63
2018-05-05T07:32:38.491Z,14.60
2018-05-05T07:34:41.109Z,14.43
2018-05-05T07:36:43.872Z,12.90
2018-05-05T07:38:46.473Z,14.20
2018-05-05T07:40:49.092Z,16.53
2018-05-05T07:42:51.708Z,17.37
2018-05-05T07:44:54.351Z,14.60
2018-05-05T07:46:56.941Z,15.10
2018-05-05T07:48:59.547Z,19.83
2018-05-05T07:51:02.168Z,16.10
2018-05-05T07:53:04.772Z,18.30
2018-05-05T07:55:07.379Z,14.83
2018-05-05T07:57:10.028Z,16.20
2018-05-05T07:59:13.462Z,14.83
2018-05-05T08:01:16.013Z,15.77
2018-05-05T08:03:19.363Z,16.70
2018-05-05T08:05:21.964Z,16.50
2018-05-05T08:07:24.556Z,16.20
2018-05-05T08:09:27.151Z,17.90
2018-05-05T08:11:30.572Z,17.50
2018-05-05T08:13:33.276Z,16.37
2018-05-05T08:15:35.891Z,14.23
2018-05-05T08:17:39.235Z,17.63
2018-05-05T08:19:41.837Z,14.83
2018-05-05T08:21:44.445Z,17.00
2018-05-05T08:23:47.055Z,15.63
2018-05-05T08:25:49.662Z,18.30
2018-05-05T08:27:52.367Z,14.67
2018-05-05T08:29:54.954Z,18.33
2018-05-05T08:31:57.589Z,21.87
2018-05-05T08:34:00.199Z,21.27
2018-05-05T08:36:02.805Z,20.60
2018-05-05T08:38:05.431Z,17.37
2018-05-05T08:40:08.819Z,18.20
2018-05-05T08:42:11.471Z,17.37
2018-05-05T08:44:14.076Z,18.33
2018-05-05T08:46:19.096Z,15.67
2018-05-05T08:48:22.461Z,21.03
2018-05-05T08:50:25.077Z,22.83
2018-05-05T08:52:28.465Z,20.50
2018-05-05T08:54:31.034Z,17.53
2018-05-05T08:56:34.459Z,23.77
2018-05-05T09:01:16.486Z,20.07
2018-05-05T09:03:19.332Z,19.83
2018-05-05T09:05:21.953Z,18.93
2018-05-05T09:07:24.602Z,17.67
2018-05-05T09:09:27.989Z,17.77
2018-05-05T09:11:31.432Z,19.80
2018-05-05T09:13:34.133Z,22.13
2018-05-05T09:15:37.044Z,15.03
2018-05-05T09:17:40.443Z,21.40
2018-05-05T09:19:43.924Z,29.10
2018-05-05T09:21:47.351Z,17.90
2018-05-05T09:23:50.000Z,14.47
2018-05-05T09:25:52.640Z,16.33
2018-05-05T09:27:55.411Z,21.10
2018-05-05T09:30:11.149Z,17.47
2018-05-05T09:32:13.813Z,25.33
2018-05-05T09:34:17.188Z,17.17
2018-05-05T09:36:19.832Z,17.17
2018-05-05T09:38:22.457Z,17.37
2018-05-05T09:40:25.875Z,16.87
2018-05-05T09:42:28.525Z,19.43
2018-05-05T09:44:31.166Z,26.93
2018-05-05T09:46:33.845Z,18.70
2018-05-05T09:48:36.492Z,20.63
2018-05-05T09:50:39.176Z,16.97
2018-05-05T09:52:41.807Z,20.17
2018-05-05T09:54:45.188Z,17.67
2018-05-05T09:56:47.817Z,20.17
2018-05-05T09:58:50.446Z,18.73
2018-05-05T10:00:53.929Z,20.07
2018-05-05T10:02:56.539Z,18.93
2018-05-05T10:04:59.136Z,21.80
2018-05-05T10:07:01.763Z,17.70
2018-05-05T10:09:04.374Z,20.63
2018-05-05T10:11:07.065Z,16.90
2018-05-05T10:13:09.719Z,20.73
2018-05-05T10:15:12.381Z,18.93
2018-05-05T10:17:15.825Z,15.93
2018-05-05T10:19:18.442Z,16.00
2018-05-05T10:21:21.824Z,15.13
2018-05-05T10:23:24.512Z,13.50
2018-05-05T10:25:27.900Z,16.13
2018-05-05T10:27:31.452Z,14.27
2018-05-05T10:29:34.090Z,18.47
2018-05-05T10:31:37.479Z,16.43
2018-05-05T10:33:40.187Z,16.70
2018-05-05T10:35:42.812Z,15.20
2018-05-05T10:37:45.486Z,15.63
2018-05-05T10:39:48.919Z,15.57
2018-05-05T10:41:51.555Z,16.40
2018-05-05T10:43:54.220Z,15.83
2018-05-05T10:45:56.872Z,16.37
2018-05-05T10:47:59.529Z,18.07
2018-05-05T10:50:02.141Z,13.93
2018-05-05T10:52:04.754Z,15.27
2018-05-05T10:54:08.236Z,20.97
2018-05-05T10:56:10.911Z,14.53
2018-05-05T10:58:13.596Z,15.00
2018-05-05T11:00:17.098Z,17.20
2018-05-05T11:02:20.475Z,12.13
2018-05-05T11:04:23.998Z,17.87
2018-05-05T11:06:26.745Z,18.63
2018-05-05T11:08:30.279Z,15.37
2018-05-05T11:10:32.890Z,15.93
2018-05-05T11:12:35.520Z,13.07
2018-05-05T11:14:38.155Z,17.43
2018-05-05T11:16:40.775Z,16.37
2018-05-05T11:18:43.630Z,13.80
2018-05-05T11:20:46.319Z,19.13
2018-05-05T11:22:49.001Z,13.90
2018-05-05T11:24:52.404Z,14.57
2018-05-05T11:26:55.036Z,16.27
2018-05-05T11:28:57.665Z,20.10
2018-05-05T11:31:00.284Z,14.53
2018-05-05T11:33:02.939Z,14.30
2018-05-05T11:35:05.919Z,14.33
2018-05-05T11:37:08.602Z,13.43
2018-05-05T11:41:20.989Z,12.37
2018-05-05T11:43:23.639Z,15.23
2018-05-05T11:45:26.297Z,19.87
2018-05-05T11:47:28.937Z,12.77
2018-05-05T11:49:31.576Z,16.47
2018-05-05T11:51:34.952Z,16.80
2018-05-05T11:53:38.356Z,15.20
2018-05-05T11:55:41.727Z,15.57
2018-05-05T11:57:44.374Z,12.30
2018-05-05T11:59:47.017Z,13.97
2018-05-05T12:01:49.693Z,14.67
2018-05-05T12:03:52.333Z,14.37
2018-05-05T12:05:55.735Z,15.43
2018-05-05T12:07:59.116Z,15.27
2018-05-05T12:10:01.768Z,18.20
2018-05-05T12:12:04.386Z,11.17
2018-05-05T12:14:07.795Z,15.63
2018-05-05T12:16:10.468Z,20.73
2018-05-05T12:18:13.091Z,15.47
2018-05-05T12:20:15.804Z,11.77
2018-05-05T12:22:19.211Z,12.70
2018-05-05T12:24:22.615Z,11.80
2018-05-05T12:26:25.225Z,13.53
2018-05-05T12:28:27.827Z,9.90
2018-05-05T12:30:30.492Z,12.70
2018-05-05T12:32:33.155Z,13.65
2018-05-05T12:34:35.786Z,18.73
2018-05-05T12:36:38.413Z,11.37
2018-05-05T12:38:41.067Z,12.68
2018-05-05T12:40:43.702Z,13.18
2018-05-05T12:42:47.190Z,11.43
2018-05-05T12:44:50.608Z,10.68
2018-05-05T12:46:53.232Z,10.60
2018-05-05T12:48:55.902Z,10.05
2018-05-05T12:50:58.560Z,8.20
2018-05-05T12:53:01.200Z,9.43
2018-05-05T12:55:04.600Z,13.35
2018-05-05T12:57:08.005Z,14.07
2018-05-05T12:59:10.646Z,9.82
2018-05-05T13:01:13.262Z,8.40
2018-05-05T13:03:15.867Z,9.63
2018-05-05T13:05:18.503Z,10.70
2018-05-05T13:07:21.177Z,14.30
2018-05-05T13:09:23.822Z,10.00
2018-05-05T13:11:27.211Z,8.93
2018-05-05T13:13:30.653Z,15.50
2018-05-05T13:15:33.333Z,10.90
2018-05-05T13:17:36.023Z,8.80
2018-05-05T13:19:38.722Z,7.77
2018-05-05T13:21:41.385Z,13.15
2018-05-05T13:23:44.095Z,8.70
2018-05-05T13:25:46.718Z,10.98
2018-05-05T13:27:49.349Z,9.02
2018-05-05T13:29:52.768Z,13.10
2018-05-05T13:31:55.375Z,9.63
2018-05-05T13:33:58.013Z,10.20
2018-05-05T13:36:00.756Z,6.83
2018-05-05T13:38:03.426Z,9.20
2018-05-05T13:40:06.097Z,8.88
2018-05-05T13:42:08.771Z,10.30
2018-05-05T13:44:11.381Z,8.05
2018-05-05T13:46:14.097Z,9.00
2018-05-05T13:48:17.444Z,11.27
2018-05-05T13:50:20.905Z,10.03
2018-05-05T13:52:23.668Z,10.23
2018-05-05T13:54:26.290Z,8.93
2018-05-05T13:56:29.712Z,9.90
2018-05-05T13:58:32.344Z,12.03
2018-05-05T14:00:35.157Z,10.80
2018-05-05T14:02:38.544Z,10.05
2018-05-05T14:04:41.941Z,11.40
2018-05-05T14:06:45.353Z,8.40
2018-05-05T14:08:47.966Z,13.13
2018-05-05T14:10:50.750Z,11.65
2018-05-05T14:12:53.564Z,11.00
2018-05-05T14:14:56.940Z,7.22
2018-05-05T14:16:59.574Z,9.05
2018-05-05T14:19:02.993Z,10.73
2018-05-05T14:21:05.614Z,11.38
2018-05-05T14:23:08.234Z,9.55
2018-05-05T14:25:11.011Z,10.52
2018-05-05T14:27:13.666Z,8.52
2018-05-05T14:29:16.292Z,11.90
2018-05-05T14:31:20.077Z,8.13
2018-05-05T14:33:22.689Z,8.80
2018-05-05T14:35:25.348Z,10.77
2018-05-05T14:37:27.969Z,11.40
2018-05-05T14:39:30.592Z,19.20
2018-05-05T14:41:33.243Z,10.75
2018-05-05T14:43:35.901Z,9.10
2018-05-05T14:45:38.562Z,7.35
2018-05-05T14:47:51.038Z,13.38
2018-05-05T14:49:53.674Z,10.53
2018-05-05T14:51:56.324Z,14.48
2018-05-05T14:53:58.975Z,8.30
2018-05-05T14:56:02.368Z,7.53
2018-05-05T14:58:04.999Z,7.30
2018-05-05T15:00:07.736Z,11.12
2018-05-05T15:02:10.384Z,12.20
2018-05-05T15:04:13.764Z,13.20
2018-05-05T15:06:16.511Z,17.45
2018-05-05T15:08:19.147Z,8.65
2018-05-05T15:10:21.786Z,8.80
2018-05-05T15:12:24.445Z,9.95
2018-05-05T15:14:27.074Z,8.18
2018-05-05T15:16:30.491Z,11.95
2018-05-05T15:18:33.658Z,11.12
2018-05-05T15:20:36.303Z,6.82
2018-05-05T15:22:38.959Z,14.68
2018-05-05T15:24:41.602Z,14.18
2018-05-05T15:26:44.481Z,9.73
2018-05-05T15:28:47.118Z,10.47
2018-05-05T15:30:51.565Z,7.22
2018-05-05T15:32:54.265Z,7.45
2018-05-05T15:34:56.949Z,9.82
2018-05-05T15:36:59.631Z,7.10
2018-05-05T15:39:02.273Z,15.40
2018-05-05T15:41:04.947Z,16.62
2018-05-05T15:43:07.651Z,8.70
2018-05-05T15:45:10.356Z,11.77
2018-05-05T15:47:12.996Z,7.83
2018-05-05T15:49:15.758Z,12.63
2018-05-05T15:51:18.409Z,11.38
2018-05-05T15:53:21.365Z,9.45
2018-05-05T15:55:24.179Z,8.50
2018-05-05T15:57:26.903Z,8.17
2018-05-05T15:59:29.517Z,10.35
2018-05-05T16:01:32.206Z,10.20
2018-05-05T16:03:35.589Z,6.55
2018-05-05T16:05:38.993Z,6.15
2018-05-05T16:07:42.393Z,8.25
2018-05-05T16:09:45.130Z,10.05
2018-05-05T16:11:48.099Z,10.68
2018-05-05T16:13:50.712Z,12.88
2018-05-05T16:15:54.094Z,8.88
2018-05-05T16:17:57.501Z,9.88
2018-05-05T16:20:00.997Z,11.45
2018-05-05T16:22:04.388Z,8.27
2018-05-05T16:24:07.022Z,10.52
2018-05-05T16:26:09.723Z,7.30
2018-05-05T16:28:12.422Z,10.75
2018-05-05T16:30:15.834Z,13.02
2018-05-05T16:32:18.517Z,8.63
2018-05-05T16:34:21.195Z,9.40
2018-05-05T16:36:23.833Z,10.48
2018-05-05T16:38:26.484Z,9.65
2018-05-05T16:40:29.215Z,8.88
2018-05-05T16:42:31.898Z,11.40
2018-05-05T16:44:34.562Z,10.07
2018-05-05T16:46:37.186Z,10.00
2018-05-05T16:48:39.855Z,11.12
2018-05-05T16:50:42.498Z,12.77
2018-05-05T16:52:45.141Z,12.55
2018-05-05T16:54:47.787Z,8.10
2018-05-05T16:56:50.492Z,10.68
2018-05-05T16:58:53.204Z,14.07
2018-05-05T17:00:56.585Z,9.10
2018-05-05T17:02:59.303Z,8.45
2018-05-05T17:05:02.700Z,6.87
2018-05-05T17:07:05.360Z,10.38
2018-05-05T17:09:07.987Z,10.05
2018-05-05T17:11:10.615Z,10.25
2018-05-05T17:13:13.260Z,8.63
2018-05-05T17:15:16.684Z,11.03
2018-05-05T17:17:19.447Z,7.90
2018-05-05T17:19:22.140Z,7.78
2018-05-05T17:21:24.781Z,9.35
2018-05-05T17:23:28.220Z,9.45
2018-05-05T17:25:30.856Z,8.38
2018-05-05T17:27:33.472Z,6.97
2018-05-05T17:29:36.121Z,11.33
2018-05-05T17:31:38.761Z,10.40
2018-05-05T17:33:41.392Z,7.10
2018-05-05T17:35:44.005Z,10.77
2018-05-05T17:37:46.735Z,14.80
2018-05-05T17:39:49.421Z,13.43
2018-05-05T17:41:52.333Z,7.20
2018-05-05T17:43:54.997Z,9.07
2018-05-05T17:45:57.750Z,10.57
2018-05-05T17:48:00.399Z,10.48
2018-05-05T17:50:03.790Z,14.32
2018-05-05T17:52:06.449Z,13.30
2018-05-05T17:54:09.844Z,12.07
2018-05-05T17:56:13.281Z,21.30
2018-05-05T17:58:15.974Z,18.23
2018-05-05T18:00:18.590Z,10.60
2018-05-05T18:02:21.961Z,13.60
2018-05-05T18:04:24.720Z,8.30
2018-05-05T18:06:27.332Z,11.20
2018-05-05T18:08:29.984Z,13.80
2018-05-05T18:10:32.605Z,9.37
2018-05-05T18:12:36.011Z,13.50
2018-05-05T18:14:38.637Z,16.10
2018-05-05T18:16:41.283Z,8.13
2018-05-05T18:18:44.024Z,9.73
2018-05-05T18:20:47.578Z,10.07
2018-05-05T18:22:51.025Z,9.80
2018-05-05T18:24:53.676Z,13.27
2018-05-05T18:26:57.077Z,13.47
2018-05-05T18:29:00.685Z,11.90
2018-05-05T18:31:04.370Z,9.40
2018-05-05T18:33:07.741Z,9.20
2018-05-05T18:35:11.183Z,6.27
2018-05-05T18:37:13.800Z,7.90
2018-05-05T18:39:16.518Z,8.67
2018-05-05T18:41:19.119Z,5.77
2018-05-05T18:43:21.776Z,11.83
2018-05-05T18:45:25.215Z,13.20
2018-05-05T18:47:31.559Z,8.50
2018-05-05T18:49:37.171Z,6.33
2018-05-05T18:51:40.585Z,10.23
2018-05-05T18:53:43.201Z,11.60
2018-05-05T18:55:45.869Z,9.80
2018-05-05T18:57:48.535Z,14.77
2018-05-05T18:59:51.186Z,12.73
2018-05-05T19:01:53.847Z,13.60
2018-05-05T19:03:57.249Z,17.63
2018-05-05T19:05:59.903Z,11.67
2018-05-05T19:08:03.287Z,14.23
2018-05-05T19:10:05.919Z,14.13
2018-05-05T19:12:08.569Z,9.60
2018-05-05T19:14:11.260Z,12.47
2018-05-05T19:16:13.985Z,12.20
2018-05-05T19:18:16.563Z,9.23
2018-05-05T19:20:19.208Z,17.87
2018-05-05T19:22:21.837Z,16.67
2018-05-05T19:24:25.358Z,18.20
2018-05-05T19:26:27.931Z,10.40
2018-05-05T19:28:30.640Z,14.43
2018-05-05T19:30:33.496Z,15.17
2018-05-05T19:32:36.141Z,18.00
2018-05-05T19:34:39.536Z,16.43
2018-05-05T19:36:42.918Z,14.83
2018-05-05T19:38:46.398Z,22.00
2018-05-05T19:40:48.989Z,17.63
2018-05-05T19:42:52.716Z,10.90
2018-05-05T19:44:55.389Z,13.00
2018-05-05T19:46:58.055Z,8.40
2018-05-05T19:49:00.671Z,10.07
2018-05-05T19:51:04.071Z,12.03
2018-05-05T19:53:06.725Z,10.33
2018-05-05T19:55:09.467Z,13.90
2018-05-05T19:57:12.884Z,11.47
2018-05-05T19:59:15.559Z,11.93
2018-05-05T20:01:18.239Z,16.30
2018-05-05T20:03:20.876Z,12.60
2018-05-05T20:05:24.412Z,12.00
2018-05-05T20:07:27.096Z,10.67
2018-05-05T20:09:29.745Z,12.90
2018-05-05T20:11:33.185Z,10.10
2018-05-05T20:13:35.823Z,11.77
2018-05-05T20:15:38.450Z,14.07
2018-05-05T20:17:41.629Z,12.47
2018-05-05T20:19:44.213Z,10.27
2018-05-05T20:21:46.890Z,12.63
2018-05-05T20:23:49.596Z,15.37
2018-05-05T20:25:53.016Z,10.77
2018-05-05T20:27:55.721Z,16.17
2018-05-05T20:29:59.646Z,13.80
2018-05-05T20:32:02.293Z,14.67
2018-05-05T20:34:04.922Z,13.63
2018-05-05T20:36:07.561Z,15.93
2018-05-05T20:38:10.164Z,13.60
2018-05-05T20:40:12.783Z,13.00
2018-05-05T20:42:15.449Z,13.90
2018-05-05T20:44:18.055Z,10.80
2018-05-05T20:46:20.687Z,15.33
2018-05-05T20:48:24.073Z,21.73
2018-05-05T20:50:27.680Z,11.60
2018-05-05T20:52:30.305Z,15.73
2018-05-05T20:54:32.949Z,16.43
2018-05-05T20:56:35.599Z,14.03
2018-05-05T20:58:38.988Z,11.80
2018-05-05T21:00:42.401Z,14.67
2018-05-05T21:02:45.045Z,16.70
2018-05-05T21:04:47.732Z,16.60
2018-05-05T21:06:50.335Z,12.63
2018-05-05T21:08:52.955Z,14.73
2018-05-05T21:10:55.614Z,15.43
2018-05-05T21:12:58.229Z,16.10
2018-05-05T21:15:00.879Z,15.40
2018-05-05T21:17:03.556Z,15.70
2018-05-05T21:19:06.185Z,17.40
2018-05-05T21:21:08.821Z,16.03
2018-05-05T21:23:11.448Z,15.07
2018-05-05T21:25:14.137Z,18.83
2018-05-05T21:27:16.779Z,17.53
2018-05-05T21:29:20.176Z,18.80
2018-05-05T21:31:22.820Z,16.17
2018-05-05T21:33:25.517Z,15.90
2018-05-05T21:35:28.113Z,19.40
2018-05-05T21:37:30.754Z,18.37
2018-05-05T21:39:34.154Z,14.53
2018-05-05T21:41:37.554Z,16.73
2018-05-05T21:43:40.924Z,18.20
2018-05-05T21:45:43.554Z,21.13
2018-05-05T21:47:46.261Z,40.33
2018-05-05T21:49:49.672Z,41.00
2018-05-05T21:51:52.300Z,22.70
2018-05-05T21:53:54.911Z,34.73
2018-05-05T21:55:57.595Z,21.40
2018-05-05T21:58:00.220Z,19.43
2018-05-05T22:00:02.873Z,23.37
2018-05-05T22:02:06.274Z,21.60
2018-05-05T22:04:08.905Z,16.70
2018-05-05T22:06:11.560Z,16.60
2018-05-05T22:08:15.025Z,13.30
2018-05-05T22:10:17.594Z,16.30
2018-05-05T22:12:20.296Z,17.17
2018-05-05T22:14:22.988Z,14.63
2018-05-05T22:16:25.671Z,17.93
2018-05-05T22:18:28.298Z,17.07
2018-05-05T22:20:31.725Z,15.73
2018-05-05T22:22:34.389Z,18.40
2018-05-05T22:24:37.046Z,22.47
2018-05-05T22:26:39.673Z,20.27
2018-05-05T22:28:42.281Z,20.50
2018-05-05T22:30:45.686Z,18.47
2018-05-05T22:32:49.107Z,18.53
2018-05-05T22:34:51.792Z,22.83
2018-05-05T22:36:54.421Z,20.00
2018-05-05T22:38:57.810Z,14.10
2018-05-05T22:41:00.416Z,15.53
2018-05-05T22:43:03.056Z,24.27
2018-05-05T22:45:05.936Z,16.70
2018-05-05T22:47:08.568Z,17.90
2018-05-05T22:49:11.194Z,23.83
2018-05-05T22:51:14.581Z,22.27
2018-05-05T22:53:17.232Z,16.00
2018-05-05T22:55:19.856Z,17.60
2018-05-05T22:57:22.688Z,18.93
2018-05-05T22:59:25.345Z,16.27
2018-05-05T23:01:27.974Z,17.03
2018-05-05T23:03:31.404Z,18.13
2018-05-05T23:05:34.118Z,13.67
2018-05-05T23:07:36.769Z,16.33
2018-05-05T23:09:39.428Z,16.17
2018-05-05T23:11:42.043Z,12.37
2018-05-05T23:13:44.718Z,13.17
2018-05-05T23:15:47.325Z,15.90
2018-05-05T23:17:50.743Z,19.37
2018-05-05T23:19:53.366Z,14.27
2018-05-05T23:21:56.035Z,12.63
2018-05-05T23:23:58.653Z,17.70
2018-05-05T23:26:02.106Z,13.57
2018-05-05T23:28:04.741Z,13.93
2018-05-05T23:30:07.341Z,13.63
2018-05-05T23:32:09.957Z,16.37
2018-05-05T23:34:12.580Z,12.53
2018-05-05T23:36:15.240Z,12.23
2018-05-05T23:38:17.911Z,11.43
2018-05-05T23:40:20.523Z,10.63
2018-05-05T23:42:23.163Z,15.17
2018-05-05T23:44:25.962Z,11.93
2018-05-05T23:46:28.600Z,14.63
2018-05-05T23:48:31.982Z,16.97
2018-05-05T23:50:34.595Z,10.80
2018-05-05T23:52:37.262Z,11.03
2018-05-05T23:54:39.892Z,16.80
2018-05-05T23:56:42.568Z,11.57
2018-05-05T23:58:45.291Z,10.77
